Friday, January 18, 2019, 11:50 PM EST
Back to Local

KASH, Nashua, Boire Field Airport

Location: Nashua, NH, United States Lat: 42.782
Local Time: 11:50 PM EST ( 4:50 GMT) Lon: -71.515
Time Zone: US/Eastern Elev: 200 ft

Show me the last for .
Show Decoded

2019-01-18 22:56 METAR KASH 190356Z AUTO 32008KT 10SM BKN038 01/M05 A3009 RMK AO2 SLP201
                 T00111050 FZRANO $ =
2019-01-18 21:56 METAR KASH 190256Z AUTO 33007KT 300V010 10SM CLR M01/M03 A3007 RMK AO2 SLP193
                 T10061033 53010 FZRANO $ =
2019-01-18 20:56 METAR KASH 190156Z 29003KT 10SM SCT035 M02/M03 A3005 RMK AO2 SLP188 T10171033 $
                 =
2019-01-18 19:56 METAR KASH 190056Z 27003KT 10SM BKN031 01/M03 A3004 RMK AO2 SLP185 T00061028 $ =
2019-01-18 18:56 METAR KASH 182356Z 29004KT 10SM OVC055 02/M02 A3003 RMK AO2 SLP182 60000
                 T00171022 10022 20006 52010 $ =
2019-01-18 17:56 METAR KASH 182256Z VRB04KT 10SM SCT030 OVC049 02/M02 A3002 RMK AO2 RAE11 SLP177
                 P0000 T00171022 $ =
2019-01-18 16:56 METAR KASH 182156Z 00000KT 10SM -RA SCT031 BKN049 OVC060 01/M03 A3002 RMK AO2
                 RAB31 SLP178 P0000 T00111028 $ =
2019-01-18 16:32 METAR KASH 182132Z 00000KT 10SM -RA SCT031 BKN049 BKN060 02/M03 A3001 RMK AO2
                 RAB31 P0000 $ =
2019-01-18 15:56 METAR KASH 182056Z 00000KT 10SM BKN029 BKN048 02/M03 A3001 RMK AO2 SLP172
                 T00221033 56013 $ =
2019-01-18 14:56 METAR KASH 181956Z VRB04KT 10SM BKN029 OVC048 02/M03 A3001 RMK AO2 SLP175
                 T00221033 $ =
2019-01-18 13:56 METAR KASH 181856Z VRB04KT 10SM BKN025 BKN055 02/M05 A3002 RMK AO2 SLP178
                 T00171050 $ =
2019-01-18 13:35 METAR KASH 181835Z VRB04KT 10SM BKN025 BKN030 BKN055 01/M05 A3003 RMK AO2 $ =
2019-01-18 12:56 METAR KASH 181756Z 00000KT 10SM OVC030 01/M06 A3004 RMK AO2 SLP185 T00061061
                 10006 21089 58038 $ =
2019-01-18 11:56 METAR KASH 181656Z COR VRB05KT 10SM OVC042 M01/M08 A3009 RMK AO2 SLP199
                 T10111083 $ =
2019-01-18 10:56 METAR KASH 181556Z 00000KT 10SM FEW034 OVC046 M03/M11 A3013 RMK AO2 SLP214
                 T10331106 $ =
2019-01-18 09:56 METAR KASH 181456Z 00000KT 10SM SCT023 OVC044 M05/M11 A3015 RMK AO2 SLP223
                 T10501106 55006 $ =
2019-01-18 09:32 METAR KASH 181432Z 32003KT 10SM BKN023 OVC045 M05/M11 A3015 RMK AO2 $ =
2019-01-18 08:56 METAR KASH 181356Z 30003KT 10SM OVC050 M06/M11 A3015 RMK AO2 SLP222 T10611111 $
                 =
2019-01-18 07:56 METAR KASH 181256Z 00000KT 10SM OVC055 M07/M11 A3016 RMK AO2 SLP226 T10721106 $
                 =
2019-01-18 06:56 METAR KASH 181156Z 30003KT 10SM BKN060 M09/M11 A3017 RMK AO2 SLP229 T10891106
                 11056 21089 55012 $ =
2019-01-18 05:56 METAR KASH 181056Z AUTO 29003KT 10SM CLR M08/M11 A3017 RMK AO2 SLP227 T10781111
                 FZRANO $ =
2019-01-18 04:56 METAR KASH 180956Z AUTO 30003KT 10SM SCT055 OVC075 M06/M11 A3018 RMK AO2 SLP231
                 T10611111 FZRANO $ =
2019-01-18 03:56 METAR KASH 180856Z AUTO 00000KT 10SM BKN080 OVC090 M06/M12 A3021 RMK AO2 SLP241
                 T10611117 58021 FZRANO $ =
2019-01-18 02:56 METAR KASH 180756Z AUTO 00000KT 10SM OVC100 M06/M11 A3025 RMK AO2 SLP256
                 T10611111 FZRANO $ =
2019-01-18 01:56 METAR KASH 180656Z AUTO 00000KT 10SM BKN090 OVC110 M06/M12 A3026 RMK AO2 SLP260
                 T10611122 FZRANO $ =
2019-01-18 00:56 METAR KASH 180556Z AUTO 32003KT 10SM SCT070 OVC100 M06/M12 A3027 RMK AO2 SLP263
                 T10611122 11050 21061 58017 FZRANO $ =
2019-01-17 23:56 METAR KASH 180456Z AUTO 00000KT 10SM OVC095 M06/M14 A3030 RMK AO2 SLP272
                 T10561144 410221122 FZRANO $ =

Support USWX by starting your Amazon purchase here.